WXM80 ListenWXM80 Stop

You find our weather info also at:

UK Metoffice

WeatherCloud

Weather Underground

Northeastern Weather Network

AWEKAS

Citizen Weather Observer Program (CWOP)

HAMweather, WeatherForYou, PWS Weather


Weather Underground History page Text

Daily Summary for February 13, 2016 Units:  English    Metric   Both
« Previous Day
Next Day »
Daily Weekly Monthly Yearly Custom
  High: Low: Average:
Temperature: 24.5 °F 5.9 °F 17.4 °F
Dew Point: 16.1 °F -9.9 °F 4.1 °F
Humidity: 77 % 37 % 56 %
Wind Speed: 21.0 mph 2.5 mph 9.3 mph
Wind Gust: 31.1 mph - -
Wind:- - WNW
Pressure: 30.28 in 29.84 in -
Precipitation: 0.00 in    
Historical Graphs
 
 
Tabular Data for February 13, 2016
Time Temperature Dew Point Pressure Wind Wind Speed Wind Gust Humidity Rainfall Rate (Hourly)
00:07 23.5 °F 11.3 °F 29.90 in WSW 5.8 mph 9.2 mph 59 % 0.00 in
00:12 23.5 °F 11.6 °F 29.90 in WSW 4.4 mph 11.5 mph 60 % 0.00 in
00:17 23.5 °F 11.6 °F 29.90 in WSW 7.5 mph 11.5 mph 60 % 0.00 in
00:22 23.5 °F 11.6 °F 29.89 in NW 4.6 mph 5.0 mph 60 % 0.00 in
00:27 23.6 °F 11.7 °F 29.89 in SW 5.5 mph 10.0 mph 60 % 0.00 in
00:33 23.6 °F 12.1 °F 29.89 in WNW 2.7 mph 8.1 mph 61 % 0.00 in
00:38 23.6 °F 12.1 °F 29.89 in West 5.2 mph 8.1 mph 61 % 0.00 in
00:43 23.6 °F 12.5 °F 29.89 in WNW 3.1 mph 8.1 mph 62 % 0.00 in
00:48 23.6 °F 12.5 °F 29.88 in WNW 2.8 mph 4.6 mph 62 % 0.00 in
00:53 23.6 °F 13.2 °F 29.88 in WNW 8.0 mph 15.0 mph 64 % 0.00 in
00:58 23.5 °F 13.5 °F 29.88 in SW 3.7 mph 8.1 mph 65 % 0.00 in
01:03 23.5 °F 13.5 °F 29.88 in West 4.8 mph 11.5 mph 65 % 0.00 in
01:08 23.4 °F 13.7 °F 29.88 in WNW 9.7 mph 13.8 mph 66 % 0.00 in
01:13 23.4 °F 14.0 °F 29.88 in WNW 4.1 mph 8.1 mph 67 % 0.00 in
01:18 23.3 °F 14.0 °F 29.87 in SW 2.5 mph 8.1 mph 67 % 0.00 in
01:24 23.3 °F 14.3 °F 29.87 in WSW 2.7 mph 12.7 mph 68 % 0.00 in
01:29 23.2 °F 14.5 °F 29.87 in WNW 5.8 mph 11.5 mph 69 % 0.00 in
01:34 23.1 °F 14.4 °F 29.87 in WNW 8.6 mph 17.3 mph 69 % 0.00 in
01:44 23.0 °F 14.7 °F 29.87 in WSW 7.4 mph 10.4 mph 70 % 0.00 in
01:49 23.0 °F 14.7 °F 29.86 in WSW 9.5 mph 15.0 mph 70 % 0.00 in
01:54 23.1 °F 14.8 °F 29.86 in WSW 5.0 mph 8.1 mph 70 % 0.00 in
01:59 23.1 °F 15.1 °F 29.86 in WNW 6.2 mph 11.5 mph 71 % 0.00 in
02:04 23.1 °F 15.1 °F 29.86 in NW 9.0 mph 10.4 mph 71 % 0.00 in
02:09 23.1 °F 15.4 °F 29.85 in WNW 8.3 mph 11.0 mph 72 % 0.00 in
02:15 23.1 °F 15.1 °F 29.86 in West 3.0 mph 11.5 mph 71 % 0.00 in
02:20 23.2 °F 15.5 °F 29.86 in West 9.5 mph 12.7 mph 72 % 0.00 in
02:25 23.2 °F 15.5 °F 29.85 in WNW 4.1 mph 8.1 mph 72 % 0.00 in
02:30 23.3 °F 15.6 °F 29.85 in NW 3.1 mph 6.9 mph 72 % 0.00 in
02:35 23.3 °F 15.9 °F 29.85 in WSW 6.7 mph 10.4 mph 73 % 0.00 in
02:40 23.2 °F 15.8 °F 29.85 in WSW 6.7 mph 12.7 mph 73 % 0.00 in
02:45 23.2 °F 15.8 °F 29.85 in SW 6.9 mph 13.8 mph 73 % 0.00 in
02:50 23.1 °F 15.7 °F 29.85 in WSW 8.9 mph 11.5 mph 73 % 0.00 in
02:55 23.1 °F 15.7 °F 29.85 in West 6.7 mph 11.5 mph 73 % 0.00 in
03:00 23.0 °F 15.6 °F 29.85 in West 6.0 mph 12.0 mph 73 % 0.00 in
03:06 23.0 °F 15.6 °F 29.84 in West 4.1 mph 12.7 mph 73 % 0.00 in
03:11 22.9 °F 15.5 °F 29.84 in West 3.1 mph 10.4 mph 73 % 0.00 in
03:16 22.8 °F 15.8 °F 29.84 in WSW 5.3 mph 8.1 mph 74 % 0.00 in
03:26 22.7 °F 16.0 °F 29.84 in SW 5.5 mph 11.5 mph 75 % 0.00 in
03:31 22.6 °F 15.6 °F 29.84 in WSW 4.2 mph 8.1 mph 74 % 0.00 in
03:36 22.5 °F 15.5 °F 29.84 in WNW 7.7 mph 8.1 mph 74 % 0.00 in
03:41 22.5 °F 15.8 °F 29.84 in SW 7.7 mph 13.8 mph 75 % 0.00 in
03:51 22.5 °F 15.8 °F 29.84 in WNW 4.8 mph 10.4 mph 75 % 0.00 in
03:57 22.5 °F 15.8 °F 29.84 in WSW 4.8 mph 11.5 mph 75 % 0.00 in
04:02 22.5 °F 15.8 °F 29.84 in West 4.0 mph 10.0 mph 75 % 0.00 in
04:07 22.4 °F 15.7 °F 29.84 in West 5.1 mph 6.9 mph 75 % 0.00 in
04:12 22.4 °F 15.7 °F 29.84 in SW 2.9 mph 5.8 mph 75 % 0.00 in
04:17 22.4 °F 15.7 °F 29.84 in WNW 4.7 mph 9.2 mph 75 % 0.00 in
04:22 22.4 °F 16.0 °F 29.84 in West 6.7 mph 11.5 mph 76 % 0.00 in
04:27 22.4 °F 15.7 °F 29.84 in West 7.6 mph 12.7 mph 75 % 0.00 in
04:32 22.4 °F 16.0 °F 29.84 in NW 6.8 mph 11.5 mph 76 % 0.00 in
04:37 22.4 °F 15.7 °F 29.84 in WSW 4.3 mph 10.4 mph 75 % 0.00 in
04:42 22.5 °F 16.1 °F 29.84 in West 6.7 mph 10.4 mph 76 % 0.00 in
04:48 22.4 °F 16.0 °F 29.84 in SW 7.4 mph 11.5 mph 76 % 0.00 in
04:53 22.4 °F 16.0 °F 29.84 in WNW 5.9 mph 11.5 mph 76 % 0.00 in
04:58 22.3 °F 15.9 °F 29.85 in WSW 7.6 mph 12.0 mph 76 % 0.00 in
05:03 22.3 °F 15.9 °F 29.85 in NW 3.4 mph 11.5 mph 76 % 0.00 in
05:13 22.2 °F 15.8 °F 29.85 in SW 6.3 mph 12.0 mph 76 % 0.00 in
05:18 22.2 °F 15.8 °F 29.85 in WSW 4.1 mph 8.1 mph 76 % 0.00 in
05:23 22.2 °F 16.1 °F 29.85 in West 5.7 mph 9.0 mph 77 % 0.00 in
05:28 22.1 °F 15.7 °F 29.85 in NNW 3.5 mph 6.9 mph 76 % 0.00 in
05:39 22.1 °F 16.0 °F 29.86 in WNW 5.3 mph 10.4 mph 77 % 0.00 in
05:44 22.1 °F 16.0 °F 29.86 in SW 4.6 mph 9.2 mph 77 % 0.00 in
05:49 22.1 °F 16.0 °F 29.86 in West 8.7 mph 13.8 mph 77 % 0.00 in
05:54 22.2 °F 15.8 °F 29.86 in NW 6.2 mph 11.5 mph 76 % 0.00 in
05:59 22.1 °F 15.7 °F 29.86 in West 7.9 mph 11.5 mph 76 % 0.00 in
06:04 22.1 °F 15.7 °F 29.86 in West 5.8 mph 11.5 mph 76 % 0.00 in
06:09 22.1 °F 15.7 °F 29.87 in West 10.3 mph 13.8 mph 76 % 0.00 in
06:14 22.2 °F 15.5 °F 29.87 in WNW 10.5 mph 14.0 mph 75 % 0.00 in
06:19 22.3 °F 15.6 °F 29.87 in West 6.1 mph 11.5 mph 75 % 0.00 in
06:24 22.3 °F 15.6 °F 29.87 in WSW 4.5 mph 10.4 mph 75 % 0.00 in
06:30 22.2 °F 15.5 °F 29.87 in WSW 5.7 mph 12.7 mph 75 % 0.00 in
06:35 22.2 °F 15.5 °F 29.87 in NW 9.6 mph 13.8 mph 75 % 0.00 in
06:45 22.0 °F 15.0 °F 29.87 in NW 5.1 mph 9.2 mph 74 % 0.00 in
06:50 22.0 °F 15.0 °F 29.87 in West 9.9 mph 16.1 mph 74 % 0.00 in
06:55 22.0 °F 15.0 °F 29.88 in NNW 6.7 mph 12.7 mph 74 % 0.00 in
07:00 22.0 °F 15.0 °F 29.88 in NW 7.7 mph 13.8 mph 74 % 0.00 in
07:05 22.1 °F 15.1 °F 29.88 in West 9.6 mph 19.6 mph 74 % 0.00 in
07:10 22.1 °F 14.8 °F 29.88 in WNW 5.6 mph 9.2 mph 73 % 0.00 in
07:15 22.2 °F 14.9 °F 29.88 in West 7.2 mph 12.7 mph 73 % 0.00 in
07:21 22.2 °F 14.5 °F 29.89 in NW 7.8 mph 15.0 mph 72 % 0.00 in
07:26 22.3 °F 14.3 °F 29.89 in WNW 6.6 mph 12.7 mph 71 % 0.00 in
07:31 22.4 °F 14.7 °F 29.90 in NW 7.3 mph 13.8 mph 72 % 0.00 in
07:36 22.4 °F 14.1 °F 29.90 in WSW 6.7 mph 12.7 mph 70 % 0.00 in
07:41 22.4 °F 14.4 °F 29.90 in NNE 5.8 mph 11.5 mph 71 % 0.00 in
07:46 22.4 °F 14.1 °F 29.91 in WSW 6.7 mph 15.0 mph 70 % 0.00 in
07:51 22.5 °F 14.5 °F 29.91 in WNW 6.4 mph 13.8 mph 71 % 0.00 in
07:56 22.5 °F 14.5 °F 29.92 in NW 7.0 mph 11.5 mph 71 % 0.00 in
08:01 22.5 °F 14.2 °F 29.92 in West 8.2 mph 11.5 mph 70 % 0.00 in
08:06 22.6 °F 14.6 °F 29.92 in SW 9.2 mph 11.5 mph 71 % 0.00 in
08:12 22.6 °F 14.0 °F 29.93 in West 10.7 mph 19.6 mph 69 % 0.00 in
08:17 22.5 °F 13.5 °F 29.93 in NNW 8.1 mph 18.0 mph 68 % 0.00 in
08:22 22.5 °F 13.5 °F 29.93 in West 10.3 mph 19.6 mph 68 % 0.00 in
08:27 22.4 °F 13.1 °F 29.93 in NNW 11.4 mph 16.1 mph 67 % 0.00 in
08:32 22.4 °F 13.1 °F 29.94 in NW 9.7 mph 16.1 mph 67 % 0.00 in
08:37 22.5 °F 12.5 °F 29.94 in NW 7.6 mph 17.3 mph 65 % 0.00 in
08:42 22.5 °F 11.4 °F 29.94 in NW 6.9 mph 11.5 mph 62 % 0.00 in
08:52 22.5 °F 9.1 °F 29.94 in NNW 9.0 mph 17.0 mph 56 % 0.00 in
08:57 22.5 °F 8.7 °F 29.94 in WNW 8.7 mph 21.0 mph 55 % 0.00 in
09:03 22.6 °F 7.2 °F 29.94 in West 11.0 mph 20.7 mph 51 % 0.00 in
09:08 23.1 °F 8.1 °F 29.94 in NW 8.2 mph 18.4 mph 52 % 0.00 in
09:13 23.8 °F 8.3 °F 29.94 in North 7.7 mph 16.0 mph 51 % 0.00 in
09:18 24.3 °F 7.9 °F 29.95 in WNW 13.9 mph 23.0 mph 49 % 0.00 in
09:23 24.3 °F 7.9 °F 29.95 in West 6.4 mph 12.0 mph 49 % 0.00 in
09:28 24.2 °F 7.3 °F 29.95 in NW 9.4 mph 15.0 mph 48 % 0.00 in
09:33 24.0 °F 7.1 °F 29.95 in WNW 13.0 mph 13.0 mph 48 % 0.00 in
09:38 23.6 °F 7.7 °F 29.95 in NW 9.3 mph 17.3 mph 50 % 0.00 in
09:43 23.4 °F 7.5 °F 29.96 in NNW 11.6 mph 22.0 mph 50 % 0.00 in
09:48 23.4 °F 7.0 °F 29.96 in NNW 9.4 mph 14.0 mph 49 % 0.00 in
09:54 23.6 °F 6.3 °F 29.96 in WNW 6.1 mph 12.7 mph 47 % 0.00 in
09:59 23.5 °F 6.2 °F 29.96 in WNW 12.9 mph 21.9 mph 47 % 0.00 in
10:04 23.5 °F 6.2 °F 29.96 in NW 10.7 mph 20.7 mph 47 % 0.00 in
10:09 23.7 °F 6.8 °F 29.96 in WNW 13.0 mph 19.6 mph 48 % 0.00 in
10:14 24.0 °F 7.6 °F 29.96 in NW 10.8 mph 21.9 mph 49 % 0.00 in
10:19 24.2 °F 5.9 °F 29.97 in WSW 10.6 mph 19.6 mph 45 % 0.00 in
10:24 23.8 °F 4.0 °F 29.97 in NW 13.3 mph 25.3 mph 42 % 0.00 in
10:29 23.5 °F 4.2 °F 29.97 in WSW 8.0 mph 15.0 mph 43 % 0.00 in
10:34 23.8 °F 3.5 °F 29.97 in NW 11.8 mph 21.9 mph 41 % 0.00 in
10:45 24.3 °F 5.5 °F 29.98 in SW 11.1 mph 14.0 mph 44 % 0.00 in
10:50 24.5 °F 4.1 °F 29.97 in West 8.9 mph 23.0 mph 41 % 0.00 in
10:55 24.4 °F 2.9 °F 29.98 in WSW 11.6 mph 25.3 mph 39 % 0.00 in
11:00 24.2 °F 2.2 °F 29.98 in WNW 9.5 mph 19.6 mph 38 % 0.00 in
11:05 23.8 °F 2.4 °F 29.98 in West 16.2 mph 24.2 mph 39 % 0.00 in
11:10 23.6 °F 1.7 °F 29.98 in WNW 14.0 mph 23.0 mph 38 % 0.00 in
11:15 23.5 °F 1.0 °F 29.98 in NW 10.0 mph 19.6 mph 37 % 0.00 in
11:20 23.4 °F 3.1 °F 29.99 in NNE 12.5 mph 20.7 mph 41 % 0.00 in
11:25 23.3 °F 2.5 °F 29.99 in NW 12.5 mph 16.1 mph 40 % 0.00 in
11:30 23.3 °F 3.0 °F 29.99 in West 10.3 mph 26.5 mph 41 % 0.00 in
11:36 23.2 °F 2.4 °F 29.99 in WNW 11.9 mph 21.9 mph 40 % 0.00 in
11:41 23.1 °F 2.3 °F 30.00 in NW 15.4 mph 25.3 mph 40 % 0.00 in
11:46 22.6 °F 1.9 °F 30.00 in West 11.0 mph 23.0 mph 40 % 0.00 in
11:51 22.4 °F 1.1 °F 30.00 in WNW 13.0 mph 19.6 mph 39 % 0.00 in
11:56 22.0 °F 0.8 °F 30.00 in NW 8.9 mph 17.3 mph 39 % 0.00 in
12:01 21.9 °F 0.7 °F 30.00 in WNW 11.3 mph 18.4 mph 39 % 0.00 in
12:06 21.8 °F 2.2 °F 30.00 in WNW 8.6 mph 20.0 mph 42 % 0.00 in
12:11 22.1 °F 3.5 °F 30.00 in WSW 9.4 mph 19.6 mph 44 % 0.00 in
12:16 22.1 °F 3.0 °F 29.99 in North 13.8 mph 24.2 mph 43 % 0.00 in
12:21 22.0 °F 2.4 °F 30.00 in West 11.1 mph 21.9 mph 42 % 0.00 in
12:27 21.5 °F 2.9 °F 30.00 in NNW 13.1 mph 17.3 mph 44 % 0.00 in
12:32 20.6 °F 2.1 °F 30.00 in NW 14.8 mph 24.2 mph 44 % 0.00 in
12:42 19.7 °F 2.7 °F 30.00 in WNW 18.0 mph 31.1 mph 47 % 0.00 in
12:47 19.8 °F 2.3 °F 30.01 in NW 14.6 mph 23.0 mph 46 % 0.00 in
12:52 19.9 °F 1.5 °F 30.01 in NNE 8.7 mph 15.0 mph 44 % 0.00 in
12:57 20.1 °F 2.6 °F 30.01 in WNW 9.7 mph 20.7 mph 46 % 0.00 in
13:02 20.3 °F 1.8 °F 30.01 in WNW 13.5 mph 26.5 mph 44 % 0.00 in
13:07 20.3 °F 1.8 °F 30.01 in WSW 8.4 mph 17.3 mph 44 % 0.00 in
13:18 21.1 °F 3.0 °F 30.01 in WNW 10.0 mph 20.7 mph 45 % 0.00 in
13:23 20.9 °F 1.4 °F 30.02 in NW 13.4 mph 21.0 mph 42 % 0.00 in
13:28 20.8 °F 1.3 °F 30.02 in North 9.9 mph 23.0 mph 42 % 0.00 in
13:33 20.9 °F 2.9 °F 30.02 in West 8.9 mph 20.7 mph 45 % 0.00 in
13:38 20.4 °F 0.9 °F 30.02 in NW 10.3 mph 19.6 mph 42 % 0.00 in
13:43 19.8 °F 0.9 °F 30.02 in NNW 10.3 mph 25.3 mph 43 % 0.00 in
13:48 19.1 °F 0.2 °F 30.02 in WNW 11.9 mph 17.3 mph 43 % 0.00 in
13:58 18.4 °F 0.1 °F 30.02 in West 10.4 mph 20.7 mph 44 % 0.00 in
14:04 18.5 °F 0.2 °F 30.02 in West 10.7 mph 19.6 mph 44 % 0.00 in
14:14 18.3 °F -1.5 °F 30.02 in WNW 9.9 mph 15.0 mph 41 % 0.00 in
14:19 18.0 °F -0.8 °F 30.03 in NW 8.7 mph 19.6 mph 43 % 0.00 in
14:24 17.9 °F -1.9 °F 30.04 in NW 12.9 mph 19.6 mph 41 % 0.00 in
14:29 17.9 °F -0.9 °F 30.04 in NNW 8.5 mph 26.5 mph 43 % 0.00 in
14:34 18.0 °F 1.1 °F 30.05 in NW 17.4 mph 26.5 mph 47 % 0.00 in
14:39 17.7 °F -2.1 °F 30.05 in West 12.3 mph 23.0 mph 41 % 0.00 in
14:44 17.4 °F -0.4 °F 30.05 in West 10.4 mph 26.5 mph 45 % 0.00 in
14:49 17.0 °F -1.2 °F 30.05 in NNW 9.7 mph 26.5 mph 44 % 0.00 in
14:55 16.6 °F -1.6 °F 30.06 in WNW 10.2 mph 23.0 mph 44 % 0.00 in
15:00 16.3 °F -2.8 °F 30.07 in NW 9.1 mph 19.6 mph 42 % 0.00 in
15:05 16.3 °F -1.4 °F 30.07 in WNW 10.2 mph 11.5 mph 45 % 0.00 in
15:10 16.2 °F -0.5 °F 30.07 in NW 7.9 mph 25.0 mph 47 % 0.00 in
15:15 16.2 °F -1.0 °F 30.07 in West 11.7 mph 21.9 mph 46 % 0.00 in
15:20 16.2 °F -1.0 °F 30.08 in NW 14.4 mph 20.0 mph 46 % 0.00 in
15:25 16.1 °F -1.5 °F 30.08 in West 10.2 mph 21.9 mph 45 % 0.00 in
15:30 16.1 °F -2.5 °F 30.08 in NNW 12.0 mph 25.3 mph 43 % 0.00 in
15:35 15.9 °F -2.2 °F 30.08 in NW 14.0 mph 26.5 mph 44 % 0.00 in
15:46 15.2 °F -3.3 °F 30.09 in NW 10.4 mph 19.6 mph 43 % 0.00 in
15:51 15.1 °F -2.0 °F 30.09 in WNW 10.2 mph 18.4 mph 46 % 0.00 in
15:56 14.9 °F -4.6 °F 30.09 in WNW 12.1 mph 20.7 mph 41 % 0.00 in
16:01 14.9 °F -1.7 °F 30.10 in WNW 10.9 mph 19.6 mph 47 % 0.00 in
16:06 15.0 °F -1.2 °F 30.10 in NW 13.3 mph 29.9 mph 48 % 0.00 in
16:16 14.8 °F -1.4 °F 30.11 in NW 8.8 mph 19.6 mph 48 % 0.00 in
16:21 14.4 °F -2.6 °F 30.12 in West 9.7 mph 20.7 mph 46 % 0.00 in
16:31 13.6 °F -3.8 °F 30.12 in West 13.7 mph 19.0 mph 45 % 0.00 in
16:37 13.5 °F -2.6 °F 30.13 in North 8.1 mph 24.2 mph 48 % 0.00 in
16:42 13.2 °F -3.7 °F 30.13 in NW 14.7 mph 23.0 mph 46 % 0.00 in
16:47 13.0 °F -3.5 °F 30.14 in NW 8.8 mph 24.2 mph 47 % 0.00 in
16:52 12.8 °F -3.7 °F 30.14 in NW 12.6 mph 23.0 mph 47 % 0.00 in
16:57 12.8 °F -1.9 °F 30.15 in WNW 15.0 mph 23.0 mph 51 % 0.00 in
17:02 12.6 °F -3.0 °F 30.15 in NW 12.5 mph 21.0 mph 49 % 0.00 in
17:07 12.5 °F -3.5 °F 30.15 in WSW 12.0 mph 25.3 mph 48 % 0.00 in
17:12 12.3 °F -3.3 °F 30.15 in NW 12.9 mph 21.9 mph 49 % 0.00 in
17:17 12.1 °F -3.9 °F 30.16 in West 9.4 mph 23.0 mph 48 % 0.00 in
17:22 12.0 °F -3.5 °F 30.16 in SW 10.2 mph 19.6 mph 49 % 0.00 in
17:28 11.7 °F -4.7 °F 30.17 in West 9.4 mph 21.9 mph 47 % 0.00 in
17:33 11.6 °F -3.9 °F 30.17 in WNW 11.1 mph 23.0 mph 49 % 0.00 in
17:38 11.4 °F -5.0 °F 30.18 in West 13.3 mph 27.0 mph 47 % 0.00 in
17:43 11.3 °F -4.2 °F 30.19 in NNW 17.0 mph 26.5 mph 49 % 0.00 in
17:48 11.2 °F -4.7 °F 30.18 in NW 13.9 mph 24.0 mph 48 % 0.00 in
17:53 11.0 °F -4.5 °F 30.19 in WNW 14.1 mph 26.5 mph 49 % 0.00 in
18:03 10.7 °F -5.2 °F 30.20 in WNW 11.2 mph 22.0 mph 48 % 0.00 in
18:08 10.5 °F -5.4 °F 30.21 in West 16.5 mph 22.0 mph 48 % 0.00 in
18:13 10.3 °F -5.5 °F 30.21 in West 15.3 mph 26.5 mph 48 % 0.00 in
18:19 10.1 °F -5.7 °F 30.22 in West 10.4 mph 24.2 mph 48 % 0.00 in
18:24 10.0 °F -5.4 °F 30.22 in NNW 9.8 mph 18.4 mph 49 % 0.00 in
18:29 9.8 °F -5.6 °F 30.22 in West 11.9 mph 20.0 mph 49 % 0.00 in
18:34 9.8 °F -4.7 °F 30.23 in NNW 9.3 mph 17.3 mph 51 % 0.00 in
18:39 9.7 °F -4.0 °F 30.23 in NW 11.5 mph 20.7 mph 53 % 0.00 in
18:44 9.5 °F -4.6 °F 30.24 in WNW 7.0 mph 17.3 mph 52 % 0.00 in
18:59 9.1 °F -3.8 °F 30.24 in NNW 8.6 mph 15.0 mph 55 % 0.00 in
19:04 8.9 °F -4.8 °F 30.24 in NW 8.8 mph 20.7 mph 53 % 0.00 in
19:10 8.6 °F -5.1 °F 30.25 in WSW 21.0 mph 21.0 mph 53 % 0.00 in
19:15 8.3 °F -5.7 °F 30.24 in WNW 13.1 mph 25.3 mph 52 % 0.00 in
19:20 8.2 °F -5.4 °F 30.24 in WNW 10.9 mph 20.7 mph 53 % 0.00 in
19:25 8.0 °F -4.9 °F 30.25 in WNW 11.2 mph 21.9 mph 55 % 0.00 in
19:30 7.8 °F -5.4 °F 30.25 in NW 11.6 mph 24.2 mph 54 % 0.00 in
19:35 7.8 °F -5.4 °F 30.25 in WNW 15.8 mph 24.2 mph 54 % 0.00 in
19:40 7.6 °F -6.8 °F 30.26 in West 9.9 mph 27.6 mph 51 % 0.00 in
19:45 7.4 °F -7.0 °F 30.27 in SW 10.4 mph 26.5 mph 51 % 0.00 in
19:50 7.3 °F -7.9 °F 30.27 in WNW 10.0 mph 23.0 mph 49 % 0.00 in
19:55 7.2 °F -6.8 °F 30.27 in NW 15.3 mph 19.6 mph 52 % 0.00 in
20:01 7.1 °F -6.9 °F 30.26 in NW 7.3 mph 17.3 mph 52 % 0.00 in
20:06 7.0 °F -7.0 °F 30.27 in NNW 9.2 mph 21.9 mph 52 % 0.00 in
20:11 6.9 °F -6.7 °F 30.27 in West 5.3 mph 15.0 mph 53 % 0.00 in
20:16 6.7 °F -7.2 °F 30.27 in WNW 7.3 mph 17.3 mph 52 % 0.00 in
20:21 6.7 °F -7.2 °F 30.27 in NNE 11.1 mph 19.6 mph 52 % 0.00 in
20:26 6.6 °F -6.9 °F 30.28 in NW 15.4 mph 27.6 mph 53 % 0.00 in
20:31 6.4 °F -7.9 °F 30.28 in West 10.7 mph 21.9 mph 51 % 0.00 in
20:41 6.4 °F -7.9 °F 30.28 in WNW 9.4 mph 20.7 mph 51 % 0.00 in
20:46 6.3 °F -8.4 °F 30.28 in West 9.3 mph 19.6 mph 50 % 0.00 in
20:52 6.1 °F -9.0 °F 30.28 in North 7.7 mph 19.6 mph 49 % 0.00 in
20:57 6.0 °F -8.3 °F 30.28 in West 13.7 mph 29.9 mph 51 % 0.00 in
21:02 6.0 °F -8.3 °F 30.28 in NW 11.9 mph 25.3 mph 51 % 0.00 in
21:07 6.0 °F -9.1 °F 30.28 in WNW 11.9 mph 20.7 mph 49 % 0.00 in
21:12 5.9 °F -9.2 °F 30.28 in NW 8.6 mph 15.0 mph 49 % 0.00 in
21:17 6.0 °F -8.7 °F 30.28 in WNW 9.3 mph 20.0 mph 50 % 0.00 in
21:22 6.0 °F -9.9 °F 30.28 in NNW 11.1 mph 24.0 mph 47 % 0.00 in
21:27 6.1 °F -7.8 °F 30.28 in West 8.3 mph 23.0 mph 52 % 0.00 in
21:32 6.2 °F -8.5 °F 30.28 in WSW 7.5 mph 18.4 mph 50 % 0.00 in
21:37 6.2 °F -8.5 °F 30.28 in NNW 9.2 mph 15.0 mph 50 % 0.00 in
21:43 6.3 °F -9.2 °F 30.27 in NW 12.4 mph 20.7 mph 48 % 0.00 in
21:48 6.3 °F -8.4 °F 30.27 in NW 6.0 mph 16.1 mph 50 % 0.00 in
21:53 6.5 °F -6.6 °F 30.28 in WNW 9.7 mph 12.7 mph 54 % 0.00 in
21:58 6.5 °F -8.2 °F 30.28 in NNW 8.1 mph 16.1 mph 50 % 0.00 in
22:03 6.5 °F -8.2 °F 30.28 in WSW 6.0 mph 16.1 mph 50 % 0.00 in
22:08 6.5 °F -7.8 °F 30.27 in NNW 10.0 mph 17.3 mph 51 % 0.00 in
22:13 6.5 °F -7.8 °F 30.28 in NW 10.8 mph 14.0 mph 51 % 0.00 in
22:18 6.6 °F -7.3 °F 30.28 in NW 13.1 mph 16.1 mph 52 % 0.00 in
22:23 6.6 °F -8.1 °F 30.27 in NW 10.8 mph 24.2 mph 50 % 0.00 in
22:28 6.6 °F -7.3 °F 30.27 in West 10.3 mph 19.0 mph 52 % 0.00 in
22:34 6.6 °F -8.1 °F 30.27 in NW 11.3 mph 17.3 mph 50 % 0.00 in
22:39 6.6 °F -7.3 °F 30.27 in WSW 12.0 mph 20.0 mph 52 % 0.00 in
22:44 6.6 °F -8.1 °F 30.27 in West 12.6 mph 20.7 mph 50 % 0.00 in
22:49 6.5 °F -8.2 °F 30.28 in SW 7.0 mph 13.8 mph 50 % 0.00 in
22:54 6.5 °F -8.6 °F 30.28 in WNW 7.7 mph 19.6 mph 49 % 0.00 in
23:04 6.6 °F -6.9 °F 30.27 in NW 13.1 mph 21.9 mph 53 % 0.00 in
23:09 6.6 °F -8.1 °F 30.28 in WNW 13.5 mph 21.9 mph 50 % 0.00 in
23:14 6.5 °F -9.1 °F 30.28 in NW 9.4 mph 15.0 mph 48 % 0.00 in
23:19 6.4 °F -8.3 °F 30.27 in WNW 10.2 mph 18.4 mph 50 % 0.00 in
23:25 6.4 °F -8.3 °F 30.27 in WNW 10.2 mph 24.2 mph 50 % 0.00 in
23:30 6.3 °F -8.4 °F 30.28 in WSW 14.6 mph 20.0 mph 50 % 0.00 in
23:35 6.4 °F -7.5 °F 30.27 in NW 11.7 mph 24.2 mph 52 % 0.00 in
23:40 6.4 °F -7.5 °F 30.27 in West 10.0 mph 23.0 mph 52 % 0.00 in
23:45 6.4 °F -7.9 °F 30.27 in NNW 13.0 mph 20.7 mph 51 % 0.00 in
23:50 6.4 °F -7.1 °F 30.27 in NNW 6.3 mph 9.0 mph 53 % 0.00 in
23:55 6.4 °F -7.5 °F 30.28 in West 8.9 mph 16.1 mph 52 % 0.00 in
Crab Meadow Weather
Compliments of Weather Underground - 2.75 mb

Script developed by  Jim McMurry - jmcmurry@mwt.net Adapted for the template by  Wim van der Kuil - Leuven-Template.eu

Astronomy: One day on Jupiter is only 9 hours and 55 minutes.